createdAt,value
2022-10-20T00:00:07.081Z,3.00
2022-10-20T00:00:19.563Z,2.70
2022-10-20T00:00:31.310Z,3.00
2022-10-20T00:00:43.061Z,3.00
2022-10-20T00:00:54.801Z,2.80
2022-10-20T00:01:07.302Z,2.90
2022-10-20T00:01:20.531Z,2.90
2022-10-20T00:01:31.345Z,3.00
2022-10-20T00:01:43.345Z,2.90
2022-10-20T00:01:57.095Z,3.10
2022-10-20T00:02:09.817Z,3.10
2022-10-20T00:02:22.095Z,2.90
2022-10-20T00:02:36.166Z,2.90
2022-10-20T00:03:16.802Z,0.00
2022-10-20T00:03:27.602Z,3.00
2022-10-20T00:03:39.803Z,3.10
2022-10-20T00:03:52.261Z,3.30
2022-10-20T00:04:04.992Z,3.10
2022-10-20T00:04:16.732Z,3.20
2022-10-20T00:04:29.672Z,3.40
2022-10-20T00:04:42.153Z,3.50
2022-10-20T00:04:54.632Z,3.40
2022-10-20T00:05:07.073Z,3.20
2022-10-20T00:05:17.896Z,3.20
2022-10-20T00:05:30.352Z,3.30
2022-10-20T00:05:41.103Z,3.40
2022-10-20T00:05:53.322Z,3.50
2022-10-20T00:06:05.592Z,3.60
2022-10-20T00:06:16.394Z,3.70
2022-10-20T00:06:27.134Z,3.60
2022-10-20T00:06:39.382Z,3.40
2022-10-20T00:06:51.852Z,3.50
2022-10-20T00:07:04.363Z,3.50
2022-10-20T00:07:15.145Z,3.60
2022-10-20T00:07:27.592Z,3.50
2022-10-20T00:07:39.793Z,3.30
2022-10-20T00:07:53.001Z,3.20
2022-10-20T00:08:04.704Z,3.10
2022-10-20T00:08:16.441Z,3.10
2022-10-20T00:08:28.945Z,3.00
2022-10-20T00:08:41.412Z,2.90
2022-10-20T00:08:53.973Z,3.00
2022-10-20T00:09:06.508Z,3.10
2022-10-20T00:09:18.953Z,3.20
2022-10-20T00:09:31.194Z,3.00
2022-10-20T00:09:42.004Z,2.90
2022-10-20T00:09:54.474Z,3.00
2022-10-20T00:10:05.265Z,2.90
2022-10-20T00:10:17.026Z,3.00
2022-10-20T00:10:29.396Z,3.10
2022-10-20T00:10:41.730Z,3.10
2022-10-20T00:10:54.257Z,3.00
2022-10-20T00:11:06.023Z,2.90
2022-10-20T00:11:16.819Z,2.80
2022-10-20T00:11:27.576Z,2.90
2022-10-20T00:11:39.840Z,3.00
2022-10-20T00:11:52.295Z,3.10
2022-10-20T00:12:05.016Z,3.00
2022-10-20T00:12:17.992Z,3.20
2022-10-20T00:12:30.504Z,3.20
2022-10-20T00:12:42.484Z,3.10
2022-10-20T00:12:53.305Z,3.00
2022-10-20T00:13:05.585Z,3.20
2022-10-20T00:13:18.055Z,3.20
2022-10-20T00:13:28.824Z,3.10
2022-10-20T00:13:39.871Z,3.10
2022-10-20T00:13:52.818Z,3.10
2022-10-20T00:14:03.573Z,3.10
2022-10-20T00:14:15.796Z,3.40
2022-10-20T00:14:28.267Z,3.30
2022-10-20T00:14:40.705Z,3.40
2022-10-20T00:14:52.957Z,3.50
2022-10-20T00:15:05.684Z,3.50
2022-10-20T00:15:17.437Z,3.40
2022-10-20T00:15:28.234Z,3.30
2022-10-20T00:15:39.096Z,3.30
2022-10-20T00:15:49.915Z,3.40
2022-10-20T00:16:02.118Z,3.50
2022-10-20T00:16:12.909Z,3.70
2022-10-20T00:16:23.706Z,3.80
2022-10-20T00:16:35.915Z,3.50
2022-10-20T00:16:48.147Z,3.40
2022-10-20T00:16:58.895Z,3.60
2022-10-20T00:17:11.227Z,3.60
2022-10-20T00:17:22.066Z,3.50
2022-10-20T00:17:32.845Z,3.20
2022-10-20T00:17:45.066Z,3.20
2022-10-20T00:17:56.807Z,3.10
2022-10-20T00:18:07.545Z,3.10
2022-10-20T00:18:18.311Z,3.20
2022-10-20T00:18:30.587Z,3.30
2022-10-20T00:18:43.047Z,3.20
2022-10-20T00:18:54.777Z,2.90
2022-10-20T00:19:06.517Z,3.00
2022-10-20T00:19:17.246Z,3.20
2022-10-20T00:19:28.947Z,3.20
2022-10-20T00:19:40.725Z,3.20
2022-10-20T00:19:51.526Z,3.00
2022-10-20T00:20:04.095Z,3.10
2022-10-20T00:20:27.279Z,3.20
2022-10-20T00:20:39.757Z,3.10
2022-10-20T00:20:51.498Z,2.90
2022-10-20T00:21:03.368Z,3.00
2022-10-20T00:21:17.091Z,3.20
2022-10-20T00:21:29.608Z,3.20
2022-10-20T00:21:41.357Z,3.10
2022-10-20T00:21:53.798Z,3.20
2022-10-20T00:22:07.462Z,3.30
2022-10-20T00:22:18.237Z,3.50
2022-10-20T00:22:29.959Z,3.70
2022-10-20T00:22:41.659Z,3.50
2022-10-20T00:22:53.398Z,3.40
2022-10-20T00:23:07.188Z,3.50
2022-10-20T00:23:19.429Z,3.40
2022-10-20T00:23:31.848Z,3.30
2022-10-20T00:23:44.059Z,3.40
2022-10-20T00:23:56.292Z,3.30
2022-10-20T00:24:08.000Z,3.40
2022-10-20T00:24:18.749Z,3.60
2022-10-20T00:24:30.982Z,3.50
2022-10-20T00:24:42.740Z,3.50
2022-10-20T00:24:54.999Z,3.40
2022-10-20T00:25:06.612Z,3.40
2022-10-20T00:25:18.353Z,3.20
2022-10-20T00:25:29.149Z,3.20
2022-10-20T00:25:42.918Z,3.30
2022-10-20T00:25:55.399Z,3.20
2022-10-20T00:26:07.880Z,3.10
2022-10-20T00:26:20.328Z,3.00
2022-10-20T00:26:32.770Z,3.00
2022-10-20T00:26:43.551Z,3.00
2022-10-20T00:26:55.760Z,3.00
2022-10-20T00:27:08.260Z,3.10
2022-10-20T00:27:19.012Z,3.10
2022-10-20T00:27:31.230Z,3.20
2022-10-20T00:27:43.724Z,3.10
2022-10-20T00:27:54.810Z,3.10
2022-10-20T00:28:06.541Z,3.00
2022-10-20T00:28:18.281Z,3.00
2022-10-20T00:28:29.799Z,3.00
2022-10-20T00:28:42.250Z,3.00
2022-10-20T00:28:54.481Z,3.00
2022-10-20T00:29:06.949Z,3.00
2022-10-20T00:29:30.309Z,3.20
2022-10-20T00:29:42.522Z,3.20
2022-10-20T00:29:53.781Z,3.10
2022-10-20T00:30:06.251Z,3.20
2022-10-20T00:30:19.523Z,3.00
2022-10-20T00:30:32.252Z,2.80
2022-10-20T00:30:43.973Z,2.80
2022-10-20T00:30:56.247Z,3.30
2022-10-20T00:31:08.682Z,3.40
2022-10-20T00:31:20.943Z,3.20
2022-10-20T00:31:31.977Z,3.10
2022-10-20T00:31:43.990Z,3.10
2022-10-20T00:31:54.774Z,3.20
2022-10-20T00:32:06.532Z,3.10
2022-10-20T00:32:17.453Z,3.00
2022-10-20T00:32:28.244Z,3.00
2022-10-20T00:32:39.229Z,3.10
2022-10-20T00:32:49.997Z,3.10
2022-10-20T00:33:01.753Z,3.10
2022-10-20T00:33:13.518Z,3.00
2022-10-20T00:33:24.303Z,3.00
2022-10-20T00:33:36.545Z,3.20
2022-10-20T00:33:48.993Z,3.20
2022-10-20T00:34:01.292Z,3.20
2022-10-20T00:34:13.763Z,3.20
2022-10-20T00:34:25.512Z,3.10
2022-10-20T00:34:37.275Z,2.90
2022-10-20T00:34:49.497Z,2.80
2022-10-20T00:35:01.794Z,3.20
2022-10-20T00:35:12.576Z,3.40
2022-10-20T00:35:25.036Z,3.60
2022-10-20T00:35:38.734Z,3.60
2022-10-20T00:35:49.513Z,3.80
2022-10-20T00:36:01.284Z,3.80
2022-10-20T00:36:12.058Z,3.90
2022-10-20T00:36:23.813Z,3.60
2022-10-20T00:36:35.565Z,3.60
2022-10-20T00:36:50.344Z,3.60
2022-10-20T00:37:03.434Z,3.60
2022-10-20T00:37:14.225Z,3.60
2022-10-20T00:37:27.956Z,3.60
2022-10-20T00:37:39.494Z,3.50
2022-10-20T00:37:50.308Z,3.50
2022-10-20T00:38:01.155Z,3.50
2022-10-20T00:38:13.445Z,3.40
2022-10-20T00:38:25.156Z,3.30
2022-10-20T00:38:36.886Z,3.40
2022-10-20T00:38:47.897Z,3.50
2022-10-20T00:38:58.716Z,3.20
2022-10-20T00:39:10.406Z,3.20
2022-10-20T00:39:21.193Z,3.40
2022-10-20T00:39:32.975Z,3.40
2022-10-20T00:39:45.196Z,3.00
2022-10-20T00:39:57.635Z,2.80
2022-10-20T00:40:10.183Z,3.20
2022-10-20T00:40:22.405Z,3.30
2022-10-20T00:40:33.385Z,3.10
2022-10-20T00:40:46.350Z,2.90
2022-10-20T00:40:57.103Z,3.00
2022-10-20T00:41:07.885Z,2.90
2022-10-20T00:41:20.096Z,3.00
2022-10-20T00:41:30.885Z,2.80
2022-10-20T00:41:42.676Z,2.80
2022-10-20T00:41:55.478Z,2.80
2022-10-20T00:42:09.246Z,2.80
2022-10-20T00:42:21.038Z,2.80
2022-10-20T00:42:33.721Z,2.80
2022-10-20T00:42:47.194Z,3.00
2022-10-20T00:42:59.689Z,3.00
2022-10-20T00:43:11.466Z,2.90
2022-10-20T00:43:23.706Z,3.10
2022-10-20T00:43:35.967Z,3.00
2022-10-20T00:43:48.455Z,3.00
2022-10-20T00:44:01.666Z,3.10
2022-10-20T00:44:13.427Z,3.30
2022-10-20T00:44:25.896Z,3.40
2022-10-20T00:44:38.377Z,3.30
2022-10-20T00:44:50.127Z,3.20
2022-10-20T00:45:02.598Z,3.20
2022-10-20T00:45:15.077Z,3.10
2022-10-20T00:45:25.848Z,3.10
2022-10-20T00:45:38.087Z,3.10
2022-10-20T00:45:49.847Z,3.20
2022-10-20T00:46:01.588Z,3.30
2022-10-20T00:46:13.307Z,3.40
2022-10-20T00:46:24.058Z,3.50
2022-10-20T00:46:37.795Z,3.40
2022-10-20T00:46:50.727Z,3.20
2022-10-20T00:47:03.207Z,3.10
2022-10-20T00:47:13.949Z,3.00
2022-10-20T00:47:25.676Z,3.10
2022-10-20T00:47:39.433Z,3.60
2022-10-20T00:47:50.148Z,3.40
2022-10-20T00:48:00.900Z,3.30
2022-10-20T00:48:13.098Z,2.90
2022-10-20T00:48:23.853Z,2.90
2022-10-20T00:48:36.299Z,2.90
2022-10-20T00:48:48.740Z,3.10
2022-10-20T00:48:59.528Z,3.30
2022-10-20T00:49:11.288Z,3.50
2022-10-20T00:49:24.231Z,3.30
2022-10-20T00:49:36.949Z,3.10
2022-10-20T00:49:48.908Z,3.20
2022-10-20T00:50:01.108Z,3.30
2022-10-20T00:50:11.890Z,3.30
2022-10-20T00:50:25.589Z,3.20
2022-10-20T00:50:37.289Z,3.10
2022-10-20T00:50:49.499Z,3.00
2022-10-20T00:51:01.259Z,3.00
2022-10-20T00:51:13.482Z,3.00
2022-10-20T00:51:25.731Z,2.90
2022-10-20T00:51:37.462Z,2.90
2022-10-20T00:51:48.241Z,3.00
2022-10-20T00:52:00.439Z,2.80
2022-10-20T00:52:12.697Z,2.70
2022-10-20T00:52:25.130Z,2.90
2022-10-20T00:52:37.072Z,3.20
2022-10-20T00:52:48.261Z,3.30
2022-10-20T00:53:00.009Z,3.20
2022-10-20T00:53:12.453Z,3.00
2022-10-20T00:53:23.500Z,3.30
2022-10-20T00:53:35.291Z,3.30
2022-10-20T00:53:48.001Z,3.50
2022-10-20T00:53:58.785Z,3.30
2022-10-20T00:54:09.570Z,3.30
2022-10-20T00:54:20.400Z,3.30
2022-10-20T00:54:31.191Z,3.40
2022-10-20T00:54:42.973Z,3.20
2022-10-20T00:54:55.460Z,3.20
2022-10-20T00:55:07.971Z,3.20
2022-10-20T00:55:21.104Z,3.10
2022-10-20T00:55:31.888Z,2.90
2022-10-20T00:55:44.874Z,2.80
2022-10-20T00:55:55.652Z,2.80
2022-10-20T00:56:06.408Z,2.90
2022-10-20T00:56:18.881Z,3.10
2022-10-20T00:56:29.922Z,3.10
2022-10-20T00:56:40.740Z,3.00
2022-10-20T00:56:52.529Z,3.00
2022-10-20T00:57:04.275Z,3.10
2022-10-20T00:57:16.481Z,3.10
2022-10-20T00:57:27.254Z,3.30
2022-10-20T00:57:38.198Z,3.20
2022-10-20T00:57:50.821Z,3.10
2022-10-20T00:58:03.331Z,2.90
2022-10-20T00:58:14.113Z,2.90
2022-10-20T00:58:24.905Z,3.00
2022-10-20T00:58:38.105Z,3.00
2022-10-20T00:58:51.846Z,3.50
2022-10-20T00:59:02.582Z,3.20
2022-10-20T00:59:14.304Z,2.90
2022-10-20T00:59:25.103Z,3.10
2022-10-20T00:59:37.312Z,2.80
2022-10-20T00:59:49.522Z,2.80
2022-10-20T01:00:01.992Z,2.90
2022-10-20T01:00:14.259Z,2.90
2022-10-20T01:00:25.053Z,3.00
2022-10-20T01:00:37.313Z,3.20
2022-10-20T01:00:51.533Z,3.20
2022-10-20T01:01:03.762Z,3.30
2022-10-20T01:01:15.526Z,3.40
2022-10-20T01:01:26.341Z,3.40
2022-10-20T01:01:38.096Z,3.40
2022-10-20T01:01:48.907Z,3.40
2022-10-20T01:01:59.705Z,3.40
2022-10-20T01:02:11.933Z,3.40
2022-10-20T01:02:24.146Z,3.50
2022-10-20T01:02:36.654Z,3.40
2022-10-20T01:02:48.172Z,3.40
2022-10-20T01:03:00.586Z,3.70
2022-10-20T01:03:13.063Z,3.80
2022-10-20T01:03:25.043Z,3.50
2022-10-20T01:03:37.054Z,3.20
2022-10-20T01:03:47.863Z,3.20
2022-10-20T01:04:00.328Z,3.30
2022-10-20T01:04:13.058Z,3.20
2022-10-20T01:04:23.843Z,3.00
2022-10-20T01:04:34.664Z,3.00
2022-10-20T01:04:46.894Z,3.10
2022-10-20T01:04:59.138Z,3.00
2022-10-20T01:05:10.900Z,2.90
2022-10-20T01:05:22.634Z,3.00
2022-10-20T01:05:33.445Z,3.10
2022-10-20T01:05:45.925Z,3.10
2022-10-20T01:05:58.246Z,3.00
2022-10-20T01:06:10.754Z,2.90
2022-10-20T01:06:22.962Z,2.90
2022-10-20T01:06:35.185Z,2.70
2022-10-20T01:06:47.465Z,2.90
2022-10-20T01:06:58.459Z,3.00
2022-10-20T01:07:10.929Z,3.00
2022-10-20T01:07:21.705Z,3.10
2022-10-20T01:07:34.447Z,3.20
2022-10-20T01:07:45.435Z,3.20
2022-10-20T01:07:56.218Z,3.00
2022-10-20T01:08:06.965Z,2.80
2022-10-20T01:08:17.764Z,2.90
2022-10-20T01:08:31.036Z,2.90
2022-10-20T01:08:45.276Z,3.10
2022-10-20T01:08:58.556Z,3.00
2022-10-20T01:09:11.125Z,2.90
2022-10-20T01:09:22.044Z,3.00
2022-10-20T01:09:33.777Z,3.00
2022-10-20T01:09:44.577Z,3.00
2022-10-20T01:09:55.356Z,2.90
2022-10-20T01:10:07.076Z,3.00
2022-10-20T01:10:17.915Z,3.00
2022-10-20T01:10:30.170Z,3.30
2022-10-20T01:10:42.407Z,3.30
2022-10-20T01:10:54.887Z,3.00
2022-10-20T01:11:07.126Z,2.90
2022-10-20T01:11:19.420Z,3.00
2022-10-20T01:11:31.877Z,3.10
2022-10-20T01:11:43.696Z,2.90
2022-10-20T01:11:56.166Z,3.40
2022-10-20T01:12:06.925Z,3.60
2022-10-20T01:12:19.409Z,3.40
2022-10-20T01:12:31.693Z,3.50
2022-10-20T01:12:43.917Z,3.40
2022-10-20T01:12:54.688Z,3.40
2022-10-20T01:13:05.500Z,3.50
2022-10-20T01:13:16.357Z,3.50
2022-10-20T01:13:27.147Z,3.60
2022-10-20T01:13:39.647Z,3.60
2022-10-20T01:13:52.433Z,3.50
2022-10-20T01:14:03.187Z,3.40
2022-10-20T01:14:14.002Z,3.30
2022-10-20T01:14:25.792Z,3.20
2022-10-20T01:14:36.568Z,3.10
2022-10-20T01:14:49.058Z,3.00
2022-10-20T01:15:01.518Z,3.10
2022-10-20T01:15:14.059Z,3.10
2022-10-20T01:15:26.546Z,3.10
2022-10-20T01:15:38.262Z,3.10
2022-10-20T01:15:51.238Z,3.00
2022-10-20T01:16:03.688Z,2.90
2022-10-20T01:16:15.429Z,2.90
2022-10-20T01:16:28.171Z,2.90
2022-10-20T01:16:38.938Z,3.00
2022-10-20T01:16:51.398Z,3.00
2022-10-20T01:17:02.169Z,3.00
2022-10-20T01:17:14.892Z,2.90
2022-10-20T01:17:27.340Z,3.10
2022-10-20T01:17:39.847Z,3.20
2022-10-20T01:17:50.619Z,3.10
2022-10-20T01:18:03.078Z,3.10
2022-10-20T01:18:14.840Z,3.00
2022-10-20T01:18:26.589Z,2.90
2022-10-20T01:18:37.369Z,3.00
2022-10-20T01:18:53.002Z,3.10
2022-10-20T01:19:03.769Z,3.20
2022-10-20T01:19:15.539Z,3.00
2022-10-20T01:19:26.339Z,3.00
2022-10-20T01:19:37.190Z,3.00
2022-10-20T01:19:47.990Z,3.10
2022-10-20T01:20:01.000Z,3.10
2022-10-20T01:20:12.756Z,3.30
2022-10-20T01:20:24.513Z,3.20
2022-10-20T01:20:35.268Z,3.00
2022-10-20T01:20:46.990Z,2.70
2022-10-20T01:20:58.740Z,3.00
2022-10-20T01:21:09.550Z,2.90
2022-10-20T01:21:20.370Z,3.00
2022-10-20T01:21:34.553Z,2.90
2022-10-20T01:21:46.552Z,3.10
2022-10-20T01:21:58.532Z,2.90
2022-10-20T01:22:10.981Z,3.00
2022-10-20T01:22:23.461Z,3.00
2022-10-20T01:22:34.499Z,2.90
2022-10-20T01:22:46.500Z,3.10
2022-10-20T01:22:58.953Z,3.00
2022-10-20T01:23:09.761Z,3.00
2022-10-20T01:23:21.491Z,3.10
2022-10-20T01:23:32.289Z,3.10
2022-10-20T01:23:44.061Z,3.20
2022-10-20T01:23:56.524Z,3.10
2022-10-20T01:24:07.372Z,3.10
2022-10-20T01:24:19.180Z,3.10
2022-10-20T01:24:30.930Z,3.00
2022-10-20T01:24:42.722Z,3.00
2022-10-20T01:24:54.482Z,3.00
2022-10-20T01:25:06.724Z,2.90
2022-10-20T01:25:18.529Z,2.80
2022-10-20T01:25:29.321Z,2.90
2022-10-20T01:25:41.572Z,3.00
2022-10-20T01:25:53.835Z,2.90
2022-10-20T01:26:04.643Z,2.80
2022-10-20T01:26:15.413Z,2.90
2022-10-20T01:26:26.183Z,2.90
2022-10-20T01:26:38.902Z,2.80
2022-10-20T01:26:49.769Z,2.70
2022-10-20T01:27:00.515Z,2.60
2022-10-20T01:27:11.313Z,2.60
2022-10-20T01:27:23.782Z,2.80
2022-10-20T01:27:36.366Z,3.10
2022-10-20T01:27:48.942Z,3.00
2022-10-20T01:28:01.393Z,2.60
2022-10-20T01:28:13.896Z,2.60
2022-10-20T01:28:25.625Z,2.80
2022-10-20T01:28:37.367Z,2.90
2022-10-20T01:28:49.838Z,2.90
2022-10-20T01:29:00.633Z,3.20
2022-10-20T01:29:11.392Z,3.40
2022-10-20T01:29:22.184Z,3.50
2022-10-20T01:29:32.973Z,3.30
2022-10-20T01:29:45.475Z,3.40
2022-10-20T01:29:57.954Z,3.20
2022-10-20T01:30:10.485Z,3.20
2022-10-20T01:30:21.284Z,3.00
2022-10-20T01:30:32.063Z,2.80
2022-10-20T01:30:44.585Z,2.90
2022-10-20T01:30:56.345Z,3.00
2022-10-20T01:31:07.103Z,3.20
2022-10-20T01:31:18.864Z,3.00
2022-10-20T01:31:31.334Z,3.30
2022-10-20T01:31:43.814Z,3.50
2022-10-20T01:31:56.293Z,3.70
2022-10-20T01:32:07.114Z,3.70
2022-10-20T01:32:19.592Z,3.80
2022-10-20T01:32:30.374Z,3.90
2022-10-20T01:32:42.335Z,3.90
2022-10-20T01:32:54.827Z,4.00
2022-10-20T01:33:07.274Z,3.90
2022-10-20T01:33:19.008Z,3.80
2022-10-20T01:33:30.741Z,3.60
2022-10-20T01:33:43.976Z,3.20
2022-10-20T01:33:56.423Z,3.10
2022-10-20T01:34:07.236Z,3.30
2022-10-20T01:34:17.995Z,3.30
2022-10-20T01:34:30.475Z,3.20
2022-10-20T01:34:42.945Z,3.10
2022-10-20T01:34:55.397Z,3.10
2022-10-20T01:35:07.615Z,3.10
2022-10-20T01:35:20.107Z,3.10
2022-10-20T01:35:30.865Z,3.00
2022-10-20T01:35:43.370Z,2.90
2022-10-20T01:35:54.145Z,3.10
2022-10-20T01:36:04.977Z,3.20
2022-10-20T01:36:16.727Z,3.20
2022-10-20T01:36:28.495Z,3.00
2022-10-20T01:36:40.265Z,2.90
2022-10-20T01:36:52.060Z,2.90
2022-10-20T01:37:02.846Z,3.00
2022-10-20T01:37:28.157Z,3.00
2022-10-20T01:37:48.058Z,2.90
2022-10-20T01:37:49.222Z,2.80
2022-10-20T01:38:01.957Z,2.80
2022-10-20T01:38:14.437Z,2.80
2022-10-20T01:38:26.396Z,3.00
2022-10-20T01:38:38.137Z,3.00
2022-10-20T01:38:49.946Z,3.10
2022-10-20T01:39:00.726Z,3.20
2022-10-20T01:39:12.456Z,3.20
2022-10-20T01:39:23.237Z,3.20
2022-10-20T01:39:36.471Z,3.20
2022-10-20T01:39:47.217Z,3.10
2022-10-20T01:40:00.941Z,3.10
2022-10-20T01:40:11.710Z,3.20
2022-10-20T01:40:24.206Z,3.30
2022-10-20T01:40:36.647Z,3.30
2022-10-20T01:40:48.478Z,3.70
2022-10-20T01:41:00.937Z,3.60
2022-10-20T01:41:13.158Z,3.70
2022-10-20T01:41:25.152Z,3.60
2022-10-20T01:41:37.378Z,3.80
2022-10-20T01:41:49.118Z,3.80
2022-10-20T01:41:59.888Z,3.80
2022-10-20T01:42:13.108Z,3.50
2022-10-20T01:42:23.949Z,3.30
2022-10-20T01:42:47.349Z,3.00
2022-10-20T01:43:00.158Z,3.00
2022-10-20T01:43:13.368Z,3.00
2022-10-20T01:43:25.178Z,2.90
2022-10-20T01:43:37.639Z,2.80
2022-10-20T01:43:50.088Z,2.90
2022-10-20T01:44:01.819Z,3.00
2022-10-20T01:44:13.799Z,3.10
2022-10-20T01:44:24.568Z,3.00
2022-10-20T01:44:38.290Z,3.10
2022-10-20T01:44:50.059Z,3.10
2022-10-20T01:45:02.770Z,2.80
2022-10-20T01:45:15.999Z,3.00
2022-10-20T01:45:27.812Z,3.20
2022-10-20T01:45:38.611Z,3.00
2022-10-20T01:45:51.083Z,2.90
2022-10-20T01:46:04.039Z,2.80
2022-10-20T01:46:14.820Z,3.00
2022-10-20T01:46:27.270Z,3.20
2022-10-20T01:46:38.129Z,3.10
2022-10-20T01:46:48.882Z,2.90
2022-10-20T01:47:01.350Z,3.00
2022-10-20T01:47:13.641Z,3.10
2022-10-20T01:47:24.433Z,3.00
2022-10-20T01:47:36.675Z,3.00
2022-10-20T01:47:50.556Z,3.10
2022-10-20T01:48:03.050Z,3.30
2022-10-20T01:48:15.280Z,3.20
2022-10-20T01:48:27.751Z,3.10
2022-10-20T01:48:40.079Z,3.20
2022-10-20T01:48:50.811Z,3.10
2022-10-20T01:49:03.750Z,3.20
2022-10-20T01:49:14.720Z,3.10
2022-10-20T01:49:27.209Z,3.10
2022-10-20T01:49:39.660Z,2.90
2022-10-20T01:49:52.862Z,2.90
2022-10-20T01:50:04.612Z,3.10
2022-10-20T01:50:16.331Z,3.10
2022-10-20T01:50:28.841Z,3.20
2022-10-20T01:50:39.619Z,3.10
2022-10-20T01:50:51.852Z,3.10
2022-10-20T01:51:04.103Z,3.00
2022-10-20T01:51:17.101Z,3.00
2022-10-20T01:51:28.159Z,3.10
2022-10-20T01:51:52.273Z,3.20
2022-10-20T01:52:04.983Z,3.30
2022-10-20T01:52:16.751Z,3.20
2022-10-20T01:52:28.483Z,3.30
2022-10-20T01:52:40.704Z,3.10
2022-10-20T01:52:53.223Z,3.00
2022-10-20T01:53:04.021Z,3.00
2022-10-20T01:53:16.453Z,3.10
2022-10-20T01:53:30.183Z,3.10
2022-10-20T01:53:42.692Z,3.00
2022-10-20T01:53:55.145Z,3.10
2022-10-20T01:54:05.922Z,3.20
2022-10-20T01:54:17.703Z,3.40
2022-10-20T01:54:30.184Z,3.60
2022-10-20T01:54:42.633Z,3.70
2022-10-20T01:54:54.593Z,3.50
2022-10-20T01:55:05.364Z,3.40
2022-10-20T01:55:17.593Z,3.60
2022-10-20T01:55:29.383Z,3.70
2022-10-20T01:55:41.143Z,3.60
2022-10-20T01:55:51.954Z,3.50
2022-10-20T01:56:05.703Z,3.30
2022-10-20T01:56:17.673Z,3.30
2022-10-20T01:56:29.414Z,3.10
2022-10-20T01:56:41.153Z,3.30
2022-10-20T01:56:52.903Z,3.20
2022-10-20T01:57:04.613Z,3.00
2022-10-20T01:57:16.354Z,3.10
2022-10-20T01:57:28.834Z,3.10
2022-10-20T01:57:41.154Z,3.20
2022-10-20T01:57:51.977Z,3.10
2022-10-20T01:58:04.424Z,3.20
2022-10-20T01:58:16.165Z,3.10
2022-10-20T01:58:29.310Z,3.00
2022-10-20T01:58:41.772Z,3.00
2022-10-20T01:58:54.214Z,3.10
2022-10-20T01:59:04.994Z,3.10
2022-10-20T01:59:17.445Z,2.90
2022-10-20T01:59:29.195Z,3.00
2022-10-20T01:59:41.444Z,3.00
2022-10-20T01:59:52.449Z,3.30
2022-10-20T02:00:03.344Z,3.40
2022-10-20T02:00:14.095Z,3.20
2022-10-20T02:00:25.825Z,3.30
2022-10-20T02:00:37.575Z,3.20
2022-10-20T02:00:48.469Z,3.40
2022-10-20T02:00:59.238Z,3.40
2022-10-20T02:01:10.996Z,3.40
2022-10-20T02:01:21.798Z,3.20
2022-10-20T02:01:32.658Z,3.10
2022-10-20T02:01:45.200Z,3.10
2022-10-20T02:01:57.832Z,3.00
2022-10-20T02:02:11.646Z,3.00
2022-10-20T02:02:22.445Z,3.00
2022-10-20T02:02:35.119Z,3.20
2022-10-20T02:02:46.135Z,3.20
2022-10-20T02:02:57.897Z,3.30
2022-10-20T02:03:11.023Z,3.20
2022-10-20T02:03:21.837Z,3.20
2022-10-20T02:03:34.106Z,3.00
2022-10-20T02:03:46.635Z,2.90
2022-10-20T02:03:59.664Z,3.00
2022-10-20T02:04:12.096Z,2.90
2022-10-20T02:04:22.925Z,2.90
2022-10-20T02:04:35.147Z,3.10
2022-10-20T02:04:46.886Z,3.10
2022-10-20T02:04:57.647Z,2.90
2022-10-20T02:05:10.867Z,2.90
2022-10-20T02:05:24.587Z,3.00
2022-10-20T02:05:35.508Z,3.20
2022-10-20T02:05:47.738Z,3.20
2022-10-20T02:05:59.947Z,2.90
2022-10-20T02:06:11.678Z,2.90
2022-10-20T02:06:24.135Z,3.30
2022-10-20T02:06:36.118Z,3.40
2022-10-20T02:06:46.898Z,3.20
2022-10-20T02:06:58.637Z,2.90
2022-10-20T02:07:10.597Z,2.90
2022-10-20T02:07:22.407Z,2.80
2022-10-20T02:07:35.628Z,3.00
2022-10-20T02:07:47.887Z,3.10
2022-10-20T02:08:00.328Z,3.10
2022-10-20T02:08:12.939Z,3.00
2022-10-20T02:08:23.717Z,3.10
2022-10-20T02:08:34.552Z,3.10
2022-10-20T02:08:46.284Z,3.00
2022-10-20T02:08:59.263Z,3.00
2022-10-20T02:09:10.989Z,3.20
2022-10-20T02:09:23.429Z,3.30
2022-10-20T02:09:35.878Z,3.30
2022-10-20T02:09:49.668Z,3.20
2022-10-20T02:10:02.119Z,3.10
2022-10-20T02:10:14.601Z,3.10
2022-10-20T02:10:26.457Z,3.10
2022-10-20T02:10:40.269Z,3.20
2022-10-20T02:10:52.770Z,3.20
2022-10-20T02:11:05.018Z,3.20
2022-10-20T02:11:16.790Z,3.10
2022-10-20T02:11:28.530Z,3.10
2022-10-20T02:11:39.299Z,3.30
2022-10-20T02:11:51.779Z,3.30
2022-10-20T02:12:04.511Z,3.20
2022-10-20T02:12:15.300Z,3.10
2022-10-20T02:12:27.850Z,3.10
2022-10-20T02:12:39.915Z,3.00
2022-10-20T02:12:52.360Z,3.20
2022-10-20T02:13:04.839Z,3.20
2022-10-20T02:13:16.639Z,3.20
2022-10-20T02:13:27.407Z,3.00
2022-10-20T02:13:39.850Z,3.00
2022-10-20T02:13:53.571Z,3.00
2022-10-20T02:14:05.330Z,3.10
2022-10-20T02:14:17.102Z,3.20
2022-10-20T02:14:29.678Z,3.20
2022-10-20T02:14:40.700Z,3.00
2022-10-20T02:14:52.440Z,3.00
2022-10-20T02:15:05.410Z,3.00
2022-10-20T02:15:16.178Z,3.00
2022-10-20T02:15:27.932Z,3.10
2022-10-20T02:15:39.780Z,3.10
2022-10-20T02:15:51.572Z,3.10
2022-10-20T02:16:04.041Z,3.10
2022-10-20T02:16:14.850Z,3.20
2022-10-20T02:16:28.072Z,3.00
2022-10-20T02:16:39.811Z,3.10
2022-10-20T02:16:52.062Z,3.00
2022-10-20T02:17:03.831Z,3.20
2022-10-20T02:17:16.361Z,3.10
2022-10-20T02:17:27.146Z,3.30
2022-10-20T02:17:38.861Z,3.30
2022-10-20T02:17:51.094Z,3.00
2022-10-20T02:18:03.560Z,3.00
2022-10-20T02:18:17.351Z,3.10
2022-10-20T02:18:30.791Z,3.00
2022-10-20T02:18:44.011Z,3.30
2022-10-20T02:19:08.943Z,3.10
2022-10-20T02:19:21.450Z,3.00
2022-10-20T02:19:32.242Z,2.80
2022-10-20T02:19:43.093Z,3.00
2022-10-20T02:19:55.593Z,3.20
2022-10-20T02:20:08.072Z,3.30
2022-10-20T02:20:19.875Z,3.30
2022-10-20T02:20:31.621Z,3.30
2022-10-20T02:20:43.425Z,3.20
2022-10-20T02:20:55.675Z,3.40
2022-10-20T02:21:07.603Z,3.50
2022-10-20T02:21:18.412Z,3.60
2022-10-20T02:21:29.200Z,3.50
2022-10-20T02:21:41.673Z,3.20
2022-10-20T02:21:53.385Z,3.30
2022-10-20T02:22:05.332Z,3.40
2022-10-20T02:22:16.083Z,3.30
2022-10-20T02:22:29.302Z,3.00
2022-10-20T02:22:42.052Z,3.00
2022-10-20T02:22:54.563Z,3.20
2022-10-20T02:23:06.374Z,3.20
2022-10-20T02:23:18.134Z,3.20
2022-10-20T02:23:35.000Z,3.20
2022-10-20T02:23:47.238Z,3.30
2022-10-20T02:23:59.464Z,3.30
2022-10-20T02:24:10.253Z,3.40
2022-10-20T02:24:21.042Z,3.50
2022-10-20T02:24:32.805Z,3.40
2022-10-20T02:24:44.623Z,3.40
2022-10-20T02:24:56.353Z,3.30
2022-10-20T02:25:09.165Z,3.10
2022-10-20T02:25:22.153Z,3.00
2022-10-20T02:25:33.896Z,3.20
2022-10-20T02:25:47.078Z,3.50
2022-10-20T02:25:58.834Z,3.60
2022-10-20T02:26:11.064Z,3.60
2022-10-20T02:26:24.276Z,3.80
2022-10-20T02:26:35.066Z,3.90
2022-10-20T02:26:46.854Z,3.80
2022-10-20T02:26:59.814Z,3.80
2022-10-20T02:27:10.577Z,3.70
2022-10-20T02:27:22.325Z,3.80
2022-10-20T02:27:34.890Z,3.40
2022-10-20T02:27:47.190Z,3.10
2022-10-20T02:28:12.806Z,3.20
2022-10-20T02:28:23.625Z,3.10
2022-10-20T02:28:36.075Z,2.90
2022-10-20T02:28:47.794Z,2.80
2022-10-20T02:29:00.264Z,2.90
2022-10-20T02:29:12.555Z,3.00
2022-10-20T02:29:25.786Z,3.10
2022-10-20T02:29:36.796Z,3.10
2022-10-20T02:29:48.617Z,2.90
2022-10-20T02:30:00.907Z,2.80
2022-10-20T02:30:11.716Z,2.80
2022-10-20T02:30:24.170Z,3.20
2022-10-20T02:30:36.656Z,3.30
2022-10-20T02:30:48.415Z,3.40
2022-10-20T02:31:00.696Z,3.30
2022-10-20T02:31:12.476Z,3.20
2022-10-20T02:31:24.247Z,3.20
2022-10-20T02:31:36.066Z,3.20
2022-10-20T02:31:49.129Z,3.20
2022-10-20T02:31:59.905Z,3.10
2022-10-20T02:32:12.356Z,3.10
2022-10-20T02:32:23.167Z,3.20
2022-10-20T02:32:35.681Z,3.40
2022-10-20T02:32:46.666Z,3.60
2022-10-20T02:32:59.897Z,3.90
2022-10-20T02:33:12.176Z,4.00
2022-10-20T02:33:23.941Z,3.80
2022-10-20T02:33:35.719Z,3.70
2022-10-20T02:33:48.003Z,3.90
2022-10-20T02:33:58.790Z,3.70
2022-10-20T02:34:09.563Z,3.60
2022-10-20T02:34:22.779Z,3.30
2022-10-20T02:34:33.579Z,3.20
2022-10-20T02:34:45.800Z,3.20
2022-10-20T02:34:57.549Z,3.20
2022-10-20T02:35:10.796Z,3.00
2022-10-20T02:35:22.528Z,3.00
2022-10-20T02:35:34.765Z,3.00
2022-10-20T02:35:47.017Z,3.20
2022-10-20T02:35:59.240Z,3.20
2022-10-20T02:36:12.456Z,3.30
2022-10-20T02:36:25.657Z,3.30
2022-10-20T02:36:36.438Z,3.20
2022-10-20T02:36:48.209Z,3.20
2022-10-20T02:36:59.038Z,3.20
2022-10-20T02:37:10.836Z,3.10
2022-10-20T02:37:22.591Z,3.50
2022-10-20T02:37:35.108Z,3.60
2022-10-20T02:37:47.979Z,3.30
2022-10-20T02:38:00.233Z,3.50
2022-10-20T02:38:11.969Z,3.80
2022-10-20T02:38:23.758Z,3.80
2022-10-20T02:38:35.519Z,3.80
2022-10-20T02:38:48.047Z,4.00
2022-10-20T02:39:00.289Z,4.10
2022-10-20T02:39:12.081Z,4.70
2022-10-20T02:39:24.549Z,4.50
2022-10-20T02:39:37.271Z,4.50
2022-10-20T02:39:49.769Z,3.70
2022-10-20T02:40:01.570Z,3.40
2022-10-20T02:40:13.329Z,3.40
2022-10-20T02:40:25.091Z,3.30
2022-10-20T02:40:36.839Z,3.50
2022-10-20T02:40:49.291Z,3.40